createdAt,value
2018-12-16T00:00:26.390Z,19.02
2018-12-16T00:02:53.979Z,17.87
2018-12-16T00:05:21.562Z,17.82
2018-12-16T00:07:49.164Z,18.55
2018-12-16T00:10:16.741Z,17.90
2018-12-16T00:12:44.694Z,17.87
2018-12-16T00:15:12.266Z,17.73
2018-12-16T00:17:39.859Z,18.35
2018-12-16T00:20:07.442Z,18.20
2018-12-16T00:22:36.263Z,19.23
2018-12-16T00:25:05.278Z,17.92
2018-12-16T00:27:32.878Z,18.32
2018-12-16T00:30:00.470Z,18.80
2018-12-16T00:32:28.035Z,18.50
2018-12-16T00:34:55.633Z,18.52
2018-12-16T00:37:23.203Z,19.57
2018-12-16T00:39:50.806Z,18.25
2018-12-16T00:42:18.371Z,18.42
2018-12-16T00:44:45.963Z,18.02
2018-12-16T00:47:13.538Z,18.75
2018-12-16T00:49:41.137Z,19.30
2018-12-16T00:52:08.701Z,19.37
2018-12-16T00:54:36.306Z,19.37
2018-12-16T00:57:03.883Z,20.60
2018-12-16T00:59:31.475Z,21.10
2018-12-16T01:01:59.051Z,21.07
2018-12-16T01:04:26.722Z,20.25
2018-12-16T01:06:54.290Z,19.80
2018-12-16T01:09:21.968Z,20.05
2018-12-16T01:11:49.563Z,19.15
2018-12-16T01:14:17.131Z,18.90
2018-12-16T01:16:44.722Z,19.17
2018-12-16T01:19:12.290Z,18.25
2018-12-16T01:21:39.899Z,19.50
2018-12-16T01:24:07.467Z,20.00
2018-12-16T01:26:35.178Z,18.90
2018-12-16T01:29:02.803Z,19.98
2018-12-16T01:31:30.595Z,18.35
2018-12-16T01:33:58.161Z,18.87
2018-12-16T01:36:25.752Z,18.10
2018-12-16T01:38:53.327Z,18.10
2018-12-16T01:41:20.918Z,18.10
2018-12-16T01:43:48.491Z,18.25
2018-12-16T01:46:16.095Z,18.12
2018-12-16T01:48:43.662Z,17.98
2018-12-16T01:51:11.254Z,17.92
2018-12-16T01:53:38.830Z,17.10
2018-12-16T01:56:06.422Z,16.80
2018-12-16T01:58:34.010Z,16.17
2018-12-16T02:01:01.587Z,15.80
2018-12-16T02:03:29.182Z,15.80
2018-12-16T02:05:56.759Z,16.00
2018-12-16T02:08:24.355Z,15.83
2018-12-16T02:10:51.923Z,16.07
2018-12-16T02:13:19.515Z,16.90
2018-12-16T02:15:47.086Z,15.93
2018-12-16T02:18:14.687Z,15.83
2018-12-16T02:20:42.263Z,15.32
2018-12-16T02:23:09.853Z,16.07
2018-12-16T02:25:37.421Z,16.43
2018-12-16T02:28:05.043Z,15.48
2018-12-16T02:30:32.606Z,15.85
2018-12-16T02:33:00.212Z,16.32
2018-12-16T02:35:27.807Z,16.17
2018-12-16T02:37:55.380Z,15.00
2018-12-16T02:40:23.002Z,14.90
2018-12-16T02:42:50.576Z,15.03
2018-12-16T02:45:19.385Z,15.37
2018-12-16T02:47:48.100Z,14.43
2018-12-16T02:50:15.694Z,15.15
2018-12-16T02:52:43.267Z,14.73
2018-12-16T02:55:10.866Z,14.35
2018-12-16T02:57:38.450Z,14.28
2018-12-16T03:00:07.790Z,13.75
2018-12-16T03:02:35.359Z,14.20
2018-12-16T03:05:03.069Z,14.90
2018-12-16T03:07:30.647Z,13.20
2018-12-16T03:09:58.248Z,14.90
2018-12-16T03:12:25.819Z,13.93
2018-12-16T03:14:53.431Z,14.28
2018-12-16T03:17:21.724Z,13.78
2018-12-16T03:19:49.294Z,12.80
2018-12-16T03:22:16.904Z,12.50
2018-12-16T03:24:44.466Z,11.70
2018-12-16T03:27:12.079Z,11.12
2018-12-16T03:29:39.660Z,11.97
2018-12-16T03:32:07.255Z,11.93
2018-12-16T03:34:34.834Z,12.37
2018-12-16T03:37:02.443Z,12.53
2018-12-16T03:39:30.010Z,12.50
2018-12-16T03:41:57.611Z,11.90
2018-12-16T03:44:25.182Z,11.57
2018-12-16T03:46:52.798Z,12.05
2018-12-16T03:49:20.363Z,11.65
2018-12-16T03:51:47.965Z,11.75
2018-12-16T03:54:15.532Z,11.25
2018-12-16T03:56:43.136Z,11.97
2018-12-16T03:59:18.071Z,11.73
2018-12-16T04:01:47.815Z,12.58
2018-12-16T04:04:15.415Z,12.15
2018-12-16T04:06:43.373Z,11.97
2018-12-16T04:09:11.331Z,12.25
2018-12-16T04:11:38.912Z,12.13
2018-12-16T04:14:06.509Z,12.25
2018-12-16T04:16:34.091Z,12.82
2018-12-16T04:19:01.689Z,13.05
2018-12-16T04:21:29.258Z,13.15
2018-12-16T04:23:56.990Z,12.43
2018-12-16T04:26:24.555Z,12.85
2018-12-16T04:28:52.158Z,12.80
2018-12-16T04:31:19.725Z,13.40
2018-12-16T04:33:47.319Z,13.13
2018-12-16T04:36:15.599Z,12.80
2018-12-16T04:38:43.204Z,12.63
2018-12-16T04:41:10.843Z,13.10
2018-12-16T04:43:38.435Z,12.23
2018-12-16T04:46:06.012Z,12.00
2018-12-16T04:48:33.588Z,12.25
2018-12-16T04:51:01.207Z,12.23
2018-12-16T04:53:35.095Z,12.33
2018-12-16T04:55:58.418Z,11.88
2018-12-16T04:58:26.075Z,11.73
2018-12-16T05:00:53.786Z,12.45
2018-12-16T05:03:21.355Z,11.83
2018-12-16T05:05:48.942Z,12.13
2018-12-16T05:08:16.522Z,11.90
2018-12-16T05:10:44.890Z,12.20
2018-12-16T05:13:12.474Z,12.13
2018-12-16T05:15:40.286Z,12.03
2018-12-16T05:18:07.863Z,12.75
2018-12-16T05:20:35.463Z,12.47
2018-12-16T05:23:03.031Z,10.83
2018-12-16T05:25:30.623Z,11.33
2018-12-16T05:27:58.193Z,11.50
2018-12-16T05:30:25.790Z,10.90
2018-12-16T05:32:53.383Z,11.22
2018-12-16T05:35:20.952Z,11.80
2018-12-16T05:37:48.586Z,11.18
2018-12-16T05:40:16.150Z,11.30
2018-12-16T05:42:43.739Z,11.05
2018-12-16T05:45:11.318Z,11.25
2018-12-16T05:47:38.918Z,11.25
2018-12-16T05:50:06.823Z,11.13
2018-12-16T05:52:34.522Z,10.90
2018-12-16T05:55:02.112Z,11.45
2018-12-16T05:57:30.358Z,10.58
2018-12-16T05:59:57.945Z,11.15
2018-12-16T06:02:25.543Z,11.10
2018-12-16T06:04:53.128Z,11.65
2018-12-16T06:07:20.734Z,11.22
2018-12-16T06:09:48.303Z,12.00
2018-12-16T06:12:15.898Z,11.43
2018-12-16T06:14:43.467Z,11.78
2018-12-16T06:17:11.039Z,11.80
2018-12-16T06:19:38.812Z,12.05
2018-12-16T06:22:06.381Z,12.23
2018-12-16T06:24:33.991Z,11.88
2018-12-16T06:27:01.560Z,11.73
2018-12-16T06:29:29.155Z,11.97
2018-12-16T06:31:56.730Z,11.68
2018-12-16T06:34:24.317Z,11.48
2018-12-16T06:36:51.892Z,11.55
2018-12-16T06:39:19.753Z,11.20
2018-12-16T06:41:47.334Z,11.03
2018-12-16T06:44:14.927Z,10.78
2018-12-16T06:46:42.499Z,11.20
2018-12-16T06:49:10.110Z,11.70
2018-12-16T06:52:38.335Z,10.40
2018-12-16T06:55:05.951Z,11.47
2018-12-16T06:57:33.518Z,11.60
2018-12-16T07:00:01.131Z,11.03
2018-12-16T07:02:28.699Z,11.15
2018-12-16T07:04:56.289Z,11.28
2018-12-16T07:07:23.859Z,10.55
2018-12-16T07:09:51.462Z,10.18
2018-12-16T07:12:19.037Z,10.60
2018-12-16T07:14:46.656Z,10.43
2018-12-16T07:17:14.259Z,10.32
2018-12-16T07:19:41.945Z,10.43
2018-12-16T07:22:09.535Z,10.05
2018-12-16T07:24:37.166Z,10.43
2018-12-16T07:27:04.938Z,9.58
2018-12-16T07:29:32.638Z,10.10
2018-12-16T07:32:00.287Z,9.73
2018-12-16T07:34:28.527Z,9.60
2018-12-16T07:36:56.271Z,10.85
2018-12-16T07:39:23.940Z,10.13
2018-12-16T07:41:51.774Z,10.43
2018-12-16T07:44:19.339Z,10.50
2018-12-16T07:46:47.177Z,10.60
2018-12-16T07:49:15.383Z,10.60
2018-12-16T07:51:42.978Z,10.45
2018-12-16T07:54:16.067Z,10.23
2018-12-16T07:56:40.203Z,10.05
2018-12-16T07:59:07.803Z,9.98
2018-12-16T08:01:36.026Z,9.95
2018-12-16T08:04:03.803Z,10.50
2018-12-16T08:06:31.413Z,10.45
2018-12-16T08:08:59.055Z,9.90
2018-12-16T08:11:26.703Z,10.15
2018-12-16T08:13:54.298Z,10.28
2018-12-16T08:16:21.866Z,10.28
2018-12-16T08:18:49.466Z,10.45
2018-12-16T08:21:17.043Z,10.65
2018-12-16T08:23:44.644Z,10.78
2018-12-16T08:26:12.225Z,10.35
2018-12-16T08:28:39.815Z,9.85
2018-12-16T08:31:07.757Z,10.13
2018-12-16T08:33:36.579Z,10.10
2018-12-16T08:36:04.343Z,10.13
2018-12-16T08:38:31.942Z,10.35
2018-12-16T08:41:00.351Z,10.55
2018-12-16T08:43:27.943Z,9.90
2018-12-16T08:45:56.465Z,10.05
2018-12-16T08:48:24.035Z,10.38
2018-12-16T08:50:51.635Z,10.43
2018-12-16T08:53:19.221Z,9.90
2018-12-16T08:55:46.827Z,9.60
2018-12-16T08:58:14.411Z,10.27
2018-12-16T09:00:42.010Z,9.40
2018-12-16T09:03:10.322Z,9.60
2018-12-16T09:05:38.065Z,10.03
2018-12-16T09:08:06.659Z,10.20
2018-12-16T09:10:34.527Z,9.28
2018-12-16T09:13:02.271Z,10.23
2018-12-16T09:15:29.986Z,9.43
2018-12-16T09:17:57.551Z,9.63
2018-12-16T09:20:25.743Z,10.18
2018-12-16T09:22:53.548Z,10.90
2018-12-16T09:25:21.148Z,8.93
2018-12-16T09:27:49.439Z,9.00
2018-12-16T09:30:17.027Z,10.40
2018-12-16T09:32:44.623Z,10.10
2018-12-16T09:35:13.412Z,10.50
2018-12-16T09:37:42.420Z,11.38
2018-12-16T09:40:13.373Z,9.85
2018-12-16T09:42:42.366Z,9.75
2018-12-16T09:45:17.262Z,10.50
2018-12-16T09:47:45.287Z,9.83
2018-12-16T09:50:12.926Z,10.00
2018-12-16T09:52:41.909Z,11.22
2018-12-16T09:55:09.491Z,10.07
2018-12-16T09:57:37.088Z,10.72
2018-12-16T10:00:06.467Z,10.10
2018-12-16T10:02:34.062Z,11.97
2018-12-16T10:05:01.724Z,10.70
2018-12-16T10:07:29.319Z,10.50
2018-12-16T10:09:56.887Z,10.60
2018-12-16T10:12:24.491Z,10.48
2018-12-16T10:14:52.651Z,12.20
2018-12-16T10:17:20.247Z,10.75
2018-12-16T10:19:47.842Z,10.48
2018-12-16T10:22:15.427Z,10.47
2018-12-16T10:24:43.021Z,11.18
2018-12-16T10:27:10.711Z,10.40
2018-12-16T10:29:38.735Z,10.65
2018-12-16T10:32:06.414Z,10.72
2018-12-16T10:34:34.087Z,10.60
2018-12-16T10:37:01.647Z,10.55
2018-12-16T10:39:29.322Z,10.77
2018-12-16T10:41:56.895Z,10.60
2018-12-16T10:44:24.518Z,11.00
2018-12-16T10:46:52.099Z,12.83
2018-12-16T10:49:19.783Z,11.68
2018-12-16T10:51:47.355Z,11.25
2018-12-16T10:54:15.092Z,11.70
2018-12-16T10:56:42.675Z,11.50
2018-12-16T10:59:10.273Z,11.75
2018-12-16T11:01:37.855Z,11.45
2018-12-16T11:04:05.506Z,11.93
2018-12-16T11:06:33.311Z,12.10
2018-12-16T11:09:01.034Z,13.10
2018-12-16T11:11:28.628Z,13.35
2018-12-16T11:13:56.194Z,12.17
2018-12-16T11:16:23.952Z,12.13
2018-12-16T11:18:51.523Z,12.18
2018-12-16T11:21:19.109Z,11.43
2018-12-16T11:23:53.523Z,12.05
2018-12-16T11:26:16.303Z,12.43
2018-12-16T11:28:43.862Z,12.30
2018-12-16T11:31:11.463Z,12.88
2018-12-16T11:33:39.026Z,12.50
2018-12-16T11:36:06.619Z,11.83
2018-12-16T11:38:34.216Z,12.03
2018-12-16T11:41:01.790Z,11.28
2018-12-16T11:43:29.409Z,11.10
2018-12-16T11:45:56.975Z,11.12
2018-12-16T11:48:24.630Z,11.90
2018-12-16T11:50:52.447Z,12.60
2018-12-16T11:53:20.038Z,12.50
2018-12-16T11:55:47.595Z,12.78
2018-12-16T11:58:15.186Z,12.18
2018-12-16T12:00:43.032Z,13.68
2018-12-16T12:03:10.666Z,13.32
2018-12-16T12:05:38.231Z,13.10
2018-12-16T12:08:05.827Z,14.43
2018-12-16T12:10:33.480Z,13.73
2018-12-16T12:13:01.075Z,13.70
2018-12-16T12:15:29.260Z,13.28
2018-12-16T12:17:56.863Z,13.53
2018-12-16T12:20:24.544Z,13.15
2018-12-16T12:22:52.830Z,13.32
2018-12-16T12:25:20.420Z,13.18
2018-12-16T12:27:48.056Z,14.03
2018-12-16T12:30:15.718Z,13.00
2018-12-16T12:32:43.282Z,13.60
2018-12-16T12:35:10.883Z,12.65
2018-12-16T12:37:38.438Z,13.68
2018-12-16T12:40:06.875Z,13.98
2018-12-16T12:42:34.445Z,13.38
2018-12-16T12:45:02.036Z,13.08
2018-12-16T12:47:29.732Z,13.15
2018-12-16T12:49:57.329Z,13.10
2018-12-16T12:52:24.891Z,13.90
2018-12-16T12:54:52.486Z,14.47
2018-12-16T12:57:20.046Z,13.80
2018-12-16T12:59:47.635Z,14.38
2018-12-16T13:02:15.195Z,14.30
2018-12-16T13:04:42.799Z,14.68
2018-12-16T13:07:10.367Z,15.35
2018-12-16T13:09:37.958Z,15.30
2018-12-16T13:12:05.535Z,15.10
2018-12-16T13:14:33.207Z,15.08
2018-12-16T13:17:00.770Z,14.93
2018-12-16T13:19:29.701Z,15.43
2018-12-16T13:21:57.554Z,15.60
2018-12-16T13:24:25.151Z,15.60
2018-12-16T13:26:53.063Z,15.03
2018-12-16T13:29:20.627Z,13.98
2018-12-16T13:31:48.214Z,14.55
2018-12-16T13:34:15.799Z,16.00
2018-12-16T13:36:43.400Z,15.98
2018-12-16T13:39:10.970Z,16.65
2018-12-16T13:41:38.559Z,16.37
2018-12-16T13:44:06.149Z,14.55
2018-12-16T13:46:33.746Z,15.40
2018-12-16T13:49:01.315Z,13.95
2018-12-16T13:51:29.236Z,14.28
2018-12-16T13:53:56.794Z,14.03
2018-12-16T13:56:24.392Z,14.47
2018-12-16T13:58:51.958Z,13.83
2018-12-16T14:01:19.558Z,13.60
2018-12-16T14:03:47.122Z,13.68
2018-12-16T14:06:14.715Z,13.80
2018-12-16T14:08:42.278Z,13.53
2018-12-16T14:11:09.874Z,14.38
2018-12-16T14:13:37.450Z,13.93
2018-12-16T14:16:05.603Z,14.10
2018-12-16T14:18:33.167Z,14.20
2018-12-16T14:21:00.763Z,13.13
2018-12-16T14:23:28.430Z,13.50
2018-12-16T14:25:56.004Z,13.72
2018-12-16T14:28:23.653Z,13.45
2018-12-16T14:30:51.218Z,14.33
2018-12-16T14:33:18.802Z,13.20
2018-12-16T14:35:46.362Z,13.95
2018-12-16T14:38:14.076Z,13.50
2018-12-16T14:40:41.671Z,13.43
2018-12-16T14:43:09.268Z,14.07
2018-12-16T14:45:37.444Z,14.87
2018-12-16T14:48:05.026Z,13.97
2018-12-16T14:50:32.603Z,13.60
2018-12-16T14:53:00.299Z,13.48
2018-12-16T14:55:27.864Z,12.88
2018-12-16T14:57:55.450Z,12.87
2018-12-16T15:00:23.022Z,13.55
2018-12-16T15:02:50.615Z,12.70
2018-12-16T15:05:18.178Z,12.47
2018-12-16T15:07:45.770Z,12.70
2018-12-16T15:10:13.327Z,13.22
2018-12-16T15:12:41.193Z,13.50
2018-12-16T15:15:09.214Z,12.00
2018-12-16T15:17:42.696Z,12.05
2018-12-16T15:20:06.962Z,12.23
2018-12-16T15:22:35.761Z,11.95
2018-12-16T15:25:04.563Z,12.17
2018-12-16T15:27:32.155Z,12.23
2018-12-16T15:29:59.749Z,11.95
2018-12-16T15:32:27.306Z,12.20
2018-12-16T15:34:54.895Z,11.63
2018-12-16T15:37:22.472Z,11.60
2018-12-16T15:39:50.060Z,12.23
2018-12-16T15:42:17.628Z,11.57
2018-12-16T15:44:45.218Z,11.33
2018-12-16T15:47:12.799Z,12.60
2018-12-16T15:49:40.386Z,12.03
2018-12-16T15:52:07.949Z,12.00
2018-12-16T15:54:35.540Z,11.35
2018-12-16T15:57:03.144Z,12.40
2018-12-16T15:59:30.740Z,12.53
2018-12-16T16:01:58.351Z,11.93
2018-12-16T16:04:26.047Z,12.25
2018-12-16T16:06:53.648Z,12.60
2018-12-16T16:09:21.215Z,12.60
2018-12-16T16:11:48.810Z,12.10
2018-12-16T16:14:16.403Z,12.10
2018-12-16T16:16:44.712Z,11.35
2018-12-16T16:19:12.279Z,12.23
2018-12-16T16:21:39.875Z,11.33
2018-12-16T16:24:07.442Z,10.72
2018-12-16T16:26:35.078Z,10.82
2018-12-16T16:29:02.660Z,10.98
2018-12-16T16:31:30.258Z,10.40
2018-12-16T16:33:57.819Z,9.90
2018-12-16T16:36:25.406Z,10.30
2018-12-16T16:38:52.970Z,10.93
2018-12-16T16:41:20.571Z,11.03
2018-12-16T16:43:48.134Z,10.70
2018-12-16T16:46:20.764Z,9.63
2018-12-16T16:48:50.419Z,10.37
2018-12-16T16:51:18.016Z,9.60
2018-12-16T16:53:45.579Z,9.75
2018-12-16T16:56:13.169Z,9.40
2018-12-16T16:58:40.726Z,9.08
2018-12-16T17:01:08.314Z,8.17
2018-12-16T17:03:35.915Z,8.48
2018-12-16T17:06:03.503Z,8.38
2018-12-16T17:08:31.212Z,8.33
2018-12-16T17:10:59.200Z,8.55
2018-12-16T17:13:26.791Z,7.87
2018-12-16T17:15:54.342Z,7.50
2018-12-16T17:18:21.950Z,8.55
2018-12-16T17:20:49.516Z,8.50
2018-12-16T17:23:17.103Z,6.47
2018-12-16T17:25:48.240Z,6.70
2018-12-16T17:28:14.262Z,6.40
2018-12-16T17:30:41.835Z,5.80
2018-12-16T17:33:09.534Z,5.65
2018-12-16T17:35:37.091Z,6.55
2018-12-16T17:38:04.678Z,5.53
2018-12-16T17:40:32.703Z,5.60
2018-12-16T17:43:00.763Z,6.20
2018-12-16T17:45:28.543Z,6.30
2018-12-16T17:47:57.432Z,6.70
2018-12-16T17:50:25.075Z,7.45
2018-12-16T17:52:52.823Z,8.65
2018-12-16T17:55:20.473Z,8.00
2018-12-16T17:57:48.043Z,7.78
2018-12-16T18:00:15.667Z,8.53
2018-12-16T18:02:43.230Z,8.83
2018-12-16T18:05:10.983Z,8.03
2018-12-16T18:07:38.619Z,8.23
2018-12-16T18:10:06.453Z,8.30
2018-12-16T18:12:34.141Z,8.03
2018-12-16T18:15:01.742Z,8.50
2018-12-16T18:17:29.351Z,8.60
2018-12-16T18:19:57.043Z,8.35
2018-12-16T18:22:24.663Z,8.28
2018-12-16T18:24:52.255Z,8.78
2018-12-16T18:27:19.819Z,9.98
2018-12-16T18:29:47.419Z,10.00
2018-12-16T18:32:15.010Z,9.28
2018-12-16T18:34:42.820Z,9.48
2018-12-16T18:37:11.751Z,9.37
2018-12-16T18:39:39.621Z,8.93
2018-12-16T18:42:07.947Z,8.65
2018-12-16T18:44:35.970Z,8.80
2018-12-16T18:47:03.821Z,8.98
2018-12-16T18:49:33.018Z,9.33
2018-12-16T18:52:01.957Z,10.53
2018-12-16T18:54:29.627Z,12.63
2018-12-16T18:56:57.456Z,14.73
2018-12-16T18:59:25.054Z,14.75
2018-12-16T19:01:53.111Z,11.60
2018-12-16T19:04:22.481Z,11.20
2018-12-16T19:06:50.426Z,11.63
2018-12-16T19:09:18.103Z,10.87
2018-12-16T19:11:46.262Z,11.65
2018-12-16T19:14:13.872Z,11.93
2018-12-16T19:16:41.738Z,12.33
2018-12-16T19:19:10.323Z,14.40
2018-12-16T19:21:38.837Z,15.28
2018-12-16T19:24:06.598Z,13.40
2018-12-16T19:26:34.576Z,14.93
2018-12-16T19:29:02.194Z,13.95
2018-12-16T19:31:29.762Z,13.43
2018-12-16T19:33:57.378Z,11.57
2018-12-16T19:36:24.963Z,11.80
2018-12-16T19:38:52.559Z,10.85
2018-12-16T19:41:20.236Z,11.03
2018-12-16T19:43:47.994Z,11.22
2018-12-16T19:46:15.723Z,10.95
2018-12-16T19:48:43.589Z,10.83
2018-12-16T19:51:11.409Z,11.25
2018-12-16T19:53:40.141Z,11.70
2018-12-16T19:56:07.909Z,10.50
2018-12-16T19:58:35.750Z,10.35
2018-12-16T20:01:03.346Z,10.78
2018-12-16T20:03:31.962Z,11.38
2018-12-16T20:06:05.341Z,10.70
2018-12-16T20:08:33.073Z,11.17
2018-12-16T20:11:00.846Z,11.28
2018-12-16T20:13:28.792Z,10.85
2018-12-16T20:16:01.484Z,10.28
2018-12-16T20:18:26.055Z,10.55
2018-12-16T20:20:53.659Z,10.32
2018-12-16T20:23:21.227Z,10.08
2018-12-16T20:25:48.824Z,10.23
2018-12-16T20:28:16.392Z,10.53
2018-12-16T20:30:43.999Z,10.53
2018-12-16T20:33:11.566Z,10.58
2018-12-16T20:35:39.155Z,10.53
2018-12-16T20:38:06.954Z,12.00
2018-12-16T20:40:34.768Z,11.95
2018-12-16T20:43:02.338Z,12.78
2018-12-16T20:45:29.931Z,11.65
2018-12-16T20:47:57.492Z,12.50
2018-12-16T20:50:25.094Z,12.05
2018-12-16T20:52:54.650Z,12.23
2018-12-16T20:55:22.272Z,12.15
2018-12-16T20:57:49.873Z,11.88
2018-12-16T21:00:18.025Z,11.60
2018-12-16T21:02:45.632Z,11.48
2018-12-16T21:05:13.201Z,10.10
2018-12-16T21:07:40.796Z,11.20
2018-12-16T21:10:08.834Z,10.38
2018-12-16T21:12:42.134Z,9.48
2018-12-16T21:15:15.453Z,9.38
2018-12-16T21:17:48.738Z,8.75
2018-12-16T21:20:16.301Z,7.62
2018-12-16T21:22:44.622Z,8.05
2018-12-16T21:25:12.193Z,7.33
2018-12-16T21:27:39.775Z,7.03
2018-12-16T21:30:09.098Z,6.90
2018-12-16T21:32:36.655Z,7.00
2018-12-16T21:35:05.274Z,6.87
2018-12-16T21:37:33.284Z,6.70
2018-12-16T21:40:01.060Z,6.97
2018-12-16T21:42:28.614Z,6.85
2018-12-16T21:44:56.195Z,6.33
2018-12-16T21:47:23.770Z,6.83
2018-12-16T21:49:51.355Z,7.00
2018-12-16T21:52:19.018Z,6.00
2018-12-16T21:54:46.605Z,6.17
2018-12-16T21:57:14.168Z,6.70
2018-12-16T21:59:42.071Z,7.03
2018-12-16T22:02:09.650Z,6.55
2018-12-16T22:04:37.234Z,7.30
2018-12-16T22:07:04.831Z,7.47
2018-12-16T22:09:32.396Z,6.57
2018-12-16T22:11:59.995Z,7.00
2018-12-16T22:14:27.555Z,7.15
2018-12-16T22:16:55.143Z,7.05
2018-12-16T22:19:22.694Z,6.50
2018-12-16T22:21:50.868Z,6.97
2018-12-16T22:24:18.443Z,7.75
2018-12-16T22:26:46.026Z,7.97
2018-12-16T22:29:13.594Z,8.00
2018-12-16T22:31:41.183Z,7.90
2018-12-16T22:34:08.751Z,7.33
2018-12-16T22:36:36.342Z,7.62
2018-12-16T22:39:06.441Z,7.53
2018-12-16T22:41:34.173Z,7.80
2018-12-16T22:44:01.745Z,7.20
2018-12-16T22:46:29.653Z,7.72
2018-12-16T22:48:57.228Z,7.80
2018-12-16T22:51:24.806Z,8.28
2018-12-16T22:53:52.401Z,7.75
2018-12-16T22:56:20.058Z,6.45
2018-12-16T22:58:54.198Z,7.00
2018-12-16T23:01:17.251Z,7.22
2018-12-16T23:03:44.858Z,7.37
2018-12-16T23:06:12.431Z,8.00
2018-12-16T23:08:40.035Z,7.55
2018-12-16T23:11:07.651Z,7.60
2018-12-16T23:13:35.242Z,7.10
2018-12-16T23:16:02.810Z,7.40
2018-12-16T23:18:30.411Z,6.58
2018-12-16T23:20:57.990Z,6.83
2018-12-16T23:23:25.590Z,6.55
2018-12-16T23:25:53.154Z,7.72
2018-12-16T23:28:20.860Z,7.37
2018-12-16T23:30:48.446Z,7.22
2018-12-16T23:33:16.063Z,7.58
2018-12-16T23:35:44.350Z,7.47
2018-12-16T23:38:11.913Z,6.30
2018-12-16T23:40:39.507Z,7.03
2018-12-16T23:43:07.090Z,7.42
2018-12-16T23:45:34.674Z,6.67
2018-12-16T23:48:02.240Z,6.70
2018-12-16T23:50:29.838Z,6.62
2018-12-16T23:52:57.403Z,7.25
2018-12-16T23:55:24.991Z,6.78
2018-12-16T23:57:52.554Z,6.90
